sensor_id;sensor_type;location;lat;lon;timestamp;temperature;humidity
42031;DHT22;27709;52.036;5.906;2023-01-26T00:01:45;0.90;99.90
42031;DHT22;27709;52.036;5.906;2023-01-26T00:04:11;0.90;99.90
42031;DHT22;27709;52.036;5.906;2023-01-26T00:06:36;0.90;99.90
42031;DHT22;27709;52.036;5.906;2023-01-26T00:09:02;0.90;99.90
42031;DHT22;27709;52.036;5.906;2023-01-26T00:11:28;0.90;99.90
42031;DHT22;27709;52.036;5.906;2023-01-26T00:13:59;0.90;99.90
42031;DHT22;27709;52.036;5.906;2023-01-26T00:16:26;0.90;99.90
42031;DHT22;27709;52.036;5.906;2023-01-26T00:18:51;0.90;99.90
42031;DHT22;27709;52.036;5.906;2023-01-26T00:21:20;0.90;99.90
42031;DHT22;27709;52.036;5.906;2023-01-26T00:23:47;0.90;99.90
42031;DHT22;27709;52.036;5.906;2023-01-26T00:26:18;0.90;99.90
42031;DHT22;27709;52.036;5.906;2023-01-26T00:28:44;0.90;99.90
42031;DHT22;27709;52.036;5.906;2023-01-26T00:31:12;0.80;99.90
42031;DHT22;27709;52.036;5.906;2023-01-26T00:33:38;0.90;99.90
42031;DHT22;27709;52.036;5.906;2023-01-26T00:36:04;0.90;99.90
42031;DHT22;27709;52.036;5.906;2023-01-26T00:38:30;0.90;99.90
42031;DHT22;27709;52.036;5.906;2023-01-26T00:40:56;0.90;99.90
42031;DHT22;27709;52.036;5.906;2023-01-26T00:43:21;0.90;99.90
42031;DHT22;27709;52.036;5.906;2023-01-26T00:45:47;0.90;99.90
42031;DHT22;27709;52.036;5.906;2023-01-26T00:48:14;0.90;99.90
42031;DHT22;27709;52.036;5.906;2023-01-26T00:50:40;0.80;99.90
42031;DHT22;27709;52.036;5.906;2023-01-26T00:53:06;0.80;99.90
42031;DHT22;27709;52.036;5.906;2023-01-26T00:55:31;0.80;99.90
42031;DHT22;27709;52.036;5.906;2023-01-26T00:58:01;0.80;99.90
42031;DHT22;27709;52.036;5.906;2023-01-26T01:00:27;0.80;99.90
42031;DHT22;27709;52.036;5.906;2023-01-26T01:02:53;0.80;99.90
42031;DHT22;27709;52.036;5.906;2023-01-26T01:05:21;0.80;99.90
42031;DHT22;27709;52.036;5.906;2023-01-26T01:07:46;0.80;99.90
42031;DHT22;27709;52.036;5.906;2023-01-26T01:10:12;0.80;99.90
42031;DHT22;27709;52.036;5.906;2023-01-26T01:12:38;0.80;99.90
42031;DHT22;27709;52.036;5.906;2023-01-26T01:15:04;0.90;99.90
42031;DHT22;27709;52.036;5.906;2023-01-26T01:17:29;0.90;99.90
42031;DHT22;27709;52.036;5.906;2023-01-26T01:19:55;0.90;99.90
42031;DHT22;27709;52.036;5.906;2023-01-26T01:22:21;0.90;99.90
42031;DHT22;27709;52.036;5.906;2023-01-26T01:24:46;0.90;99.90
42031;DHT22;27709;52.036;5.906;2023-01-26T01:27:12;0.80;99.90
42031;DHT22;27709;52.036;5.906;2023-01-26T01:29:37;0.90;99.90
42031;DHT22;27709;52.036;5.906;2023-01-26T01:32:03;0.90;99.90
42031;DHT22;27709;52.036;5.906;2023-01-26T01:34:29;0.90;99.90
42031;DHT22;27709;52.036;5.906;2023-01-26T01:36:55;0.90;99.90
42031;DHT22;27709;52.036;5.906;2023-01-26T01:39:22;0.90;99.90
42031;DHT22;27709;52.036;5.906;2023-01-26T01:41:47;0.90;99.90
42031;DHT22;27709;52.036;5.906;2023-01-26T01:44:21;0.90;99.90
42031;DHT22;27709;52.036;5.906;2023-01-26T01:46:59;0.90;99.90
42031;DHT22;27709;52.036;5.906;2023-01-26T01:49:31;0.90;99.90
42031;DHT22;27709;52.036;5.906;2023-01-26T01:52:05;0.90;99.90
42031;DHT22;27709;52.036;5.906;2023-01-26T01:54:43;0.90;99.90
42031;DHT22;27709;52.036;5.906;2023-01-26T01:57:15;0.90;99.90
42031;DHT22;27709;52.036;5.906;2023-01-26T01:59:47;1.00;99.90
42031;DHT22;27709;52.036;5.906;2023-01-26T02:02:13;0.90;99.90
42031;DHT22;27709;52.036;5.906;2023-01-26T02:04:39;0.90;99.90
42031;DHT22;27709;52.036;5.906;2023-01-26T02:07:06;0.90;99.90
42031;DHT22;27709;52.036;5.906;2023-01-26T02:09:35;0.90;99.90
42031;DHT22;27709;52.036;5.906;2023-01-26T02:12:22;1.00;99.90
42031;DHT22;27709;52.036;5.906;2023-01-26T02:14:49;1.00;99.90
42031;DHT22;27709;52.036;5.906;2023-01-26T02:17:16;1.00;99.90
42031;DHT22;27709;52.036;5.906;2023-01-26T02:25:08;1.00;99.90
42031;DHT22;27709;52.036;5.906;2023-01-26T02:27:35;1.00;99.90
42031;DHT22;27709;52.036;5.906;2023-01-26T02:30:01;1.00;99.90
42031;DHT22;27709;52.036;5.906;2023-01-26T02:32:28;1.00;99.90
42031;DHT22;27709;52.036;5.906;2023-01-26T02:34:57;0.90;99.90
42031;DHT22;27709;52.036;5.906;2023-01-26T02:37:23;0.90;99.90
42031;DHT22;27709;52.036;5.906;2023-01-26T02:39:59;0.90;99.90
42031;DHT22;27709;52.036;5.906;2023-01-26T02:42:26;0.90;99.90
42031;DHT22;27709;52.036;5.906;2023-01-26T02:45:07;1.00;99.90
42031;DHT22;27709;52.036;5.906;2023-01-26T02:47:33;1.00;99.90
42031;DHT22;27709;52.036;5.906;2023-01-26T02:49:58;1.00;99.90
42031;DHT22;27709;52.036;5.906;2023-01-26T02:52:26;1.00;99.90
42031;DHT22;27709;52.036;5.906;2023-01-26T02:54:53;1.00;99.90
42031;DHT22;27709;52.036;5.906;2023-01-26T02:57:38;1.00;99.90
42031;DHT22;27709;52.036;5.906;2023-01-26T03:00:07;1.00;99.90
42031;DHT22;27709;52.036;5.906;2023-01-26T03:02:33;1.00;99.90
42031;DHT22;27709;52.036;5.906;2023-01-26T03:04:58;1.10;99.90
42031;DHT22;27709;52.036;5.906;2023-01-26T03:07:24;1.10;99.90
42031;DHT22;27709;52.036;5.906;2023-01-26T03:09:49;1.10;99.90
42031;DHT22;27709;52.036;5.906;2023-01-26T03:12:15;1.10;99.90
42031;DHT22;27709;52.036;5.906;2023-01-26T03:14:40;1.10;99.90
42031;DHT22;27709;52.036;5.906;2023-01-26T03:17:06;1.10;99.90
42031;DHT22;27709;52.036;5.906;2023-01-26T03:19:32;1.10;99.90
42031;DHT22;27709;52.036;5.906;2023-01-26T03:22:16;1.10;99.90
42031;DHT22;27709;52.036;5.906;2023-01-26T03:25:00;1.10;99.90
42031;DHT22;27709;52.036;5.906;2023-01-26T03:27:46;1.10;99.90
42031;DHT22;27709;52.036;5.906;2023-01-26T03:30:17;1.10;99.90
42031;DHT22;27709;52.036;5.906;2023-01-26T03:32:43;1.10;99.90
42031;DHT22;27709;52.036;5.906;2023-01-26T03:35:09;1.10;99.90
42031;DHT22;27709;52.036;5.906;2023-01-26T03:37:40;1.10;99.90
42031;DHT22;27709;52.036;5.906;2023-01-26T03:40:09;1.20;99.90
42031;DHT22;27709;52.036;5.906;2023-01-26T03:42:53;1.20;99.90
42031;DHT22;27709;52.036;5.906;2023-01-26T03:45:37;1.20;99.90
42031;DHT22;27709;52.036;5.906;2023-01-26T03:48:21;1.30;99.90
42031;DHT22;27709;52.036;5.906;2023-01-26T03:51:05;1.20;99.90
42031;DHT22;27709;52.036;5.906;2023-01-26T03:53:49;1.30;99.90
42031;DHT22;27709;52.036;5.906;2023-01-26T03:56:33;1.30;99.90
42031;DHT22;27709;52.036;5.906;2023-01-26T03:59:01;1.30;99.90
42031;DHT22;27709;52.036;5.906;2023-01-26T04:01:35;1.30;99.90
42031;DHT22;27709;52.036;5.906;2023-01-26T04:04:00;1.30;99.90
42031;DHT22;27709;52.036;5.906;2023-01-26T04:06:46;1.30;99.90
42031;DHT22;27709;52.036;5.906;2023-01-26T04:09:31;1.30;99.90
42031;DHT22;27709;52.036;5.906;2023-01-26T04:11:57;1.30;99.90
42031;DHT22;27709;52.036;5.906;2023-01-26T04:14:23;1.30;99.90
42031;DHT22;27709;52.036;5.906;2023-01-26T04:17:08;1.40;99.90
42031;DHT22;27709;52.036;5.906;2023-01-26T04:19:53;1.30;99.90
42031;DHT22;27709;52.036;5.906;2023-01-26T04:22:39;1.30;99.90
42031;DHT22;27709;52.036;5.906;2023-01-26T04:25:10;1.40;99.90
42031;DHT22;27709;52.036;5.906;2023-01-26T04:27:35;1.40;99.90
42031;DHT22;27709;52.036;5.906;2023-01-26T04:30:02;1.40;99.90
42031;DHT22;27709;52.036;5.906;2023-01-26T04:32:29;1.40;99.90
42031;DHT22;27709;52.036;5.906;2023-01-26T04:34:54;1.50;99.90
42031;DHT22;27709;52.036;5.906;2023-01-26T04:37:20;1.50;99.90
42031;DHT22;27709;52.036;5.906;2023-01-26T04:39:46;1.50;99.90
42031;DHT22;27709;52.036;5.906;2023-01-26T04:42:11;1.60;99.90
42031;DHT22;27709;52.036;5.906;2023-01-26T04:44:37;1.50;99.90
42031;DHT22;27709;52.036;5.906;2023-01-26T04:47:02;1.50;99.90
42031;DHT22;27709;52.036;5.906;2023-01-26T04:49:29;1.50;99.90
42031;DHT22;27709;52.036;5.906;2023-01-26T04:51:55;1.50;99.90
42031;DHT22;27709;52.036;5.906;2023-01-26T04:54:20;1.50;99.90
42031;DHT22;27709;52.036;5.906;2023-01-26T04:56:46;1.40;99.90
42031;DHT22;27709;52.036;5.906;2023-01-26T04:59:11;1.50;99.90
42031;DHT22;27709;52.036;5.906;2023-01-26T05:01:37;1.50;99.90
42031;DHT22;27709;52.036;5.906;2023-01-26T05:04:04;1.50;99.90
42031;DHT22;27709;52.036;5.906;2023-01-26T05:06:31;1.50;99.90
42031;DHT22;27709;52.036;5.906;2023-01-26T05:08:57;1.50;99.90
42031;DHT22;27709;52.036;5.906;2023-01-26T05:11:23;1.50;99.90
42031;DHT22;27709;52.036;5.906;2023-01-26T05:13:48;1.50;99.90
42031;DHT22;27709;52.036;5.906;2023-01-26T05:16:14;1.60;99.90
42031;DHT22;27709;52.036;5.906;2023-01-26T05:18:41;1.60;99.90
42031;DHT22;27709;52.036;5.906;2023-01-26T05:21:07;1.60;99.90
42031;DHT22;27709;52.036;5.906;2023-01-26T05:23:33;1.60;99.90
42031;DHT22;27709;52.036;5.906;2023-01-26T05:26:00;1.60;99.90
42031;DHT22;27709;52.036;5.906;2023-01-26T05:28:26;1.60;99.90
42031;DHT22;27709;52.036;5.906;2023-01-26T05:30:52;1.60;99.90
42031;DHT22;27709;52.036;5.906;2023-01-26T05:33:17;1.60;99.90
42031;DHT22;27709;52.036;5.906;2023-01-26T05:35:50;1.60;99.90
42031;DHT22;27709;52.036;5.906;2023-01-26T05:38:17;1.70;99.90
42031;DHT22;27709;52.036;5.906;2023-01-26T05:40:43;1.60;99.90
42031;DHT22;27709;52.036;5.906;2023-01-26T05:43:11;1.70;99.90
42031;DHT22;27709;52.036;5.906;2023-01-26T05:45:40;1.60;99.90
42031;DHT22;27709;52.036;5.906;2023-01-26T05:48:06;1.70;99.90
42031;DHT22;27709;52.036;5.906;2023-01-26T05:50:32;1.70;99.90
42031;DHT22;27709;52.036;5.906;2023-01-26T05:52:58;1.70;99.90
42031;DHT22;27709;52.036;5.906;2023-01-26T05:55:27;1.70;99.90
42031;DHT22;27709;52.036;5.906;2023-01-26T05:57:53;1.70;99.90
42031;DHT22;27709;52.036;5.906;2023-01-26T06:00:19;1.70;99.90
42031;DHT22;27709;52.036;5.906;2023-01-26T06:02:45;1.80;99.90
42031;DHT22;27709;52.036;5.906;2023-01-26T06:05:16;1.80;99.90
42031;DHT22;27709;52.036;5.906;2023-01-26T06:07:43;1.80;99.90
42031;DHT22;27709;52.036;5.906;2023-01-26T06:10:09;1.80;99.90
42031;DHT22;27709;52.036;5.906;2023-01-26T06:12:35;1.80;99.90
42031;DHT22;27709;52.036;5.906;2023-01-26T06:15:04;1.80;99.90
42031;DHT22;27709;52.036;5.906;2023-01-26T06:17:32;1.80;99.90
42031;DHT22;27709;52.036;5.906;2023-01-26T06:20:00;1.80;99.90
42031;DHT22;27709;52.036;5.906;2023-01-26T06:22:25;1.80;99.90
42031;DHT22;27709;52.036;5.906;2023-01-26T06:24:52;1.80;99.90
42031;DHT22;27709;52.036;5.906;2023-01-26T06:27:18;1.80;99.90
42031;DHT22;27709;52.036;5.906;2023-01-26T06:29:45;1.80;99.90
42031;DHT22;27709;52.036;5.906;2023-01-26T06:32:14;1.80;99.90
42031;DHT22;27709;52.036;5.906;2023-01-26T06:34:40;1.80;99.90
42031;DHT22;27709;52.036;5.906;2023-01-26T06:37:11;1.90;99.90
42031;DHT22;27709;52.036;5.906;2023-01-26T06:39:47;1.90;99.90
42031;DHT22;27709;52.036;5.906;2023-01-26T06:42:14;1.90;99.90
42031;DHT22;27709;52.036;5.906;2023-01-26T06:44:46;1.90;99.90
42031;DHT22;27709;52.036;5.906;2023-01-26T06:49:53;1.90;99.90
42031;DHT22;27709;52.036;5.906;2023-01-26T06:52:31;1.90;99.90
42031;DHT22;27709;52.036;5.906;2023-01-26T06:55:03;1.90;99.90
42031;DHT22;27709;52.036;5.906;2023-01-26T06:57:30;1.90;99.90
42031;DHT22;27709;52.036;5.906;2023-01-26T06:59:56;1.90;99.90
42031;DHT22;27709;52.036;5.906;2023-01-26T07:02:23;1.90;99.90
42031;DHT22;27709;52.036;5.906;2023-01-26T07:04:49;1.90;99.90
42031;DHT22;27709;52.036;5.906;2023-01-26T07:07:15;1.90;99.90
42031;DHT22;27709;52.036;5.906;2023-01-26T07:09:40;1.90;99.90
42031;DHT22;27709;52.036;5.906;2023-01-26T07:12:06;1.90;99.90
42031;DHT22;27709;52.036;5.906;2023-01-26T07:14:32;1.90;99.90
42031;DHT22;27709;52.036;5.906;2023-01-26T07:16:58;1.90;99.90
42031;DHT22;27709;52.036;5.906;2023-01-26T07:19:23;1.90;99.90
42031;DHT22;27709;52.036;5.906;2023-01-26T07:21:49;2.00;99.90
42031;DHT22;27709;52.036;5.906;2023-01-26T07:24:14;1.90;99.90
42031;DHT22;27709;52.036;5.906;2023-01-26T07:26:40;2.00;99.90
42031;DHT22;27709;52.036;5.906;2023-01-26T07:29:06;2.00;99.90
42031;DHT22;27709;52.036;5.906;2023-01-26T07:31:31;2.00;99.90
42031;DHT22;27709;52.036;5.906;2023-01-26T07:33:57;2.00;99.90
42031;DHT22;27709;52.036;5.906;2023-01-26T07:36:22;2.00;99.90
42031;DHT22;27709;52.036;5.906;2023-01-26T07:38:48;2.10;99.90
42031;DHT22;27709;52.036;5.906;2023-01-26T07:41:13;2.10;99.90
42031;DHT22;27709;52.036;5.906;2023-01-26T07:43:39;2.10;99.90
42031;DHT22;27709;52.036;5.906;2023-01-26T07:46:06;2.10;99.90
42031;DHT22;27709;52.036;5.906;2023-01-26T07:48:33;2.10;99.90
42031;DHT22;27709;52.036;5.906;2023-01-26T07:51:00;2.10;99.90
42031;DHT22;27709;52.036;5.906;2023-01-26T07:53:27;2.10;99.90
42031;DHT22;27709;52.036;5.906;2023-01-26T07:55:54;2.20;99.90
42031;DHT22;27709;52.036;5.906;2023-01-26T07:58:20;2.20;99.90
42031;DHT22;27709;52.036;5.906;2023-01-26T08:00:46;2.20;99.90
42031;DHT22;27709;52.036;5.906;2023-01-26T08:03:12;2.20;99.90
42031;DHT22;27709;52.036;5.906;2023-01-26T08:05:38;2.20;99.90
42031;DHT22;27709;52.036;5.906;2023-01-26T08:08:03;2.30;99.90
42031;DHT22;27709;52.036;5.906;2023-01-26T08:10:29;2.30;99.90
42031;DHT22;27709;52.036;5.906;2023-01-26T08:12:58;2.30;99.90
42031;DHT22;27709;52.036;5.906;2023-01-26T08:15:25;2.30;99.90
42031;DHT22;27709;52.036;5.906;2023-01-26T08:17:52;2.20;99.90
42031;DHT22;27709;52.036;5.906;2023-01-26T08:20:18;2.20;99.90
42031;DHT22;27709;52.036;5.906;2023-01-26T08:22:44;2.20;99.90
42031;DHT22;27709;52.036;5.906;2023-01-26T08:25:09;2.20;99.90
42031;DHT22;27709;52.036;5.906;2023-01-26T08:27:35;2.20;99.90
42031;DHT22;27709;52.036;5.906;2023-01-26T08:30:00;2.20;99.90
42031;DHT22;27709;52.036;5.906;2023-01-26T08:32:28;2.20;99.90
42031;DHT22;27709;52.036;5.906;2023-01-26T08:34:54;2.20;99.90
42031;DHT22;27709;52.036;5.906;2023-01-26T08:37:20;2.20;99.90
42031;DHT22;27709;52.036;5.906;2023-01-26T08:39:45;2.30;99.90
42031;DHT22;27709;52.036;5.906;2023-01-26T08:42:11;2.30;99.90
42031;DHT22;27709;52.036;5.906;2023-01-26T08:44:36;2.30;99.90
42031;DHT22;27709;52.036;5.906;2023-01-26T08:47:02;2.40;99.90
42031;DHT22;27709;52.036;5.906;2023-01-26T08:49:27;2.40;99.90
42031;DHT22;27709;52.036;5.906;2023-01-26T08:51:53;2.40;99.90
42031;DHT22;27709;52.036;5.906;2023-01-26T08:54:18;2.40;99.90
42031;DHT22;27709;52.036;5.906;2023-01-26T08:56:44;2.50;99.90
42031;DHT22;27709;52.036;5.906;2023-01-26T08:59:09;2.50;99.90
42031;DHT22;27709;52.036;5.906;2023-01-26T09:01:35;2.50;99.90
42031;DHT22;27709;52.036;5.906;2023-01-26T09:04:01;2.50;99.90
42031;DHT22;27709;52.036;5.906;2023-01-26T09:06:27;2.50;99.90
42031;DHT22;27709;52.036;5.906;2023-01-26T09:08:54;2.50;99.90
42031;DHT22;27709;52.036;5.906;2023-01-26T09:11:20;2.50;99.90
42031;DHT22;27709;52.036;5.906;2023-01-26T09:13:51;2.50;99.90
42031;DHT22;27709;52.036;5.906;2023-01-26T09:16:23;2.50;99.90
42031;DHT22;27709;52.036;5.906;2023-01-26T09:18:52;2.60;99.90
42031;DHT22;27709;52.036;5.906;2023-01-26T09:21:18;2.60;99.90
42031;DHT22;27709;52.036;5.906;2023-01-26T09:23:44;2.60;99.90
42031;DHT22;27709;52.036;5.906;2023-01-26T09:26:11;2.60;99.90
42031;DHT22;27709;52.036;5.906;2023-01-26T09:28:37;2.60;99.90
42031;DHT22;27709;52.036;5.906;2023-01-26T09:31:04;2.60;99.90
42031;DHT22;27709;52.036;5.906;2023-01-26T09:33:30;2.60;99.90
42031;DHT22;27709;52.036;5.906;2023-01-26T09:36:05;2.60;99.90
42031;DHT22;27709;52.036;5.906;2023-01-26T09:38:31;2.60;99.90
42031;DHT22;27709;52.036;5.906;2023-01-26T09:43:50;2.60;99.90
42031;DHT22;27709;52.036;5.906;2023-01-26T09:49:09;2.60;99.90
42031;DHT22;27709;52.036;5.906;2023-01-26T09:51:40;2.70;99.90
42031;DHT22;27709;52.036;5.906;2023-01-26T09:56:53;2.70;99.90
42031;DHT22;27709;52.036;5.906;2023-01-26T09:59:38;2.70;99.90
42031;DHT22;27709;52.036;5.906;2023-01-26T10:04:39;2.80;99.90
42031;DHT22;27709;52.036;5.906;2023-01-26T10:07:11;2.80;99.90
42031;DHT22;27709;52.036;5.906;2023-01-26T10:09:39;2.90;99.90
42031;DHT22;27709;52.036;5.906;2023-01-26T10:12:26;3.00;99.90
42031;DHT22;27709;52.036;5.906;2023-01-26T10:14:58;3.00;99.90
42031;DHT22;27709;52.036;5.906;2023-01-26T10:17:38;3.10;99.90
42031;DHT22;27709;52.036;5.906;2023-01-26T10:20:30;3.10;99.90
42031;DHT22;27709;52.036;5.906;2023-01-26T10:23:03;3.20;99.90
42031;DHT22;27709;52.036;5.906;2023-01-26T10:25:37;3.30;99.90
42031;DHT22;27709;52.036;5.906;2023-01-26T10:28:30;3.40;99.90
42031;DHT22;27709;52.036;5.906;2023-01-26T10:30:57;3.40;99.90
42031;DHT22;27709;52.036;5.906;2023-01-26T10:33:33;3.50;99.90
42031;DHT22;27709;52.036;5.906;2023-01-26T10:36:04;3.60;99.90
42031;DHT22;27709;52.036;5.906;2023-01-26T10:43:57;3.70;99.90
42031;DHT22;27709;52.036;5.906;2023-01-26T10:51:33;3.80;99.90
42031;DHT22;27709;52.036;5.906;2023-01-26T10:59:37;4.00;99.90
42031;DHT22;27709;52.036;5.906;2023-01-26T11:02:25;4.10;99.90
42031;DHT22;27709;52.036;5.906;2023-01-26T11:12:43;4.50;99.90
42031;DHT22;27709;52.036;5.906;2023-01-26T11:15:21;4.60;99.90
42031;DHT22;27709;52.036;5.906;2023-01-26T11:17:51;4.70;99.90
42031;DHT22;27709;52.036;5.906;2023-01-26T11:23:19;4.90;99.90
42031;DHT22;27709;52.036;5.906;2023-01-26T11:28:46;5.10;99.90
42031;DHT22;27709;52.036;5.906;2023-01-26T11:39:37;5.60;99.90
42031;DHT22;27709;52.036;5.906;2023-01-26T11:45:16;5.90;99.90
42031;DHT22;27709;52.036;5.906;2023-01-26T11:50:46;6.10;99.90
42031;DHT22;27709;52.036;5.906;2023-01-26T11:53:41;6.30;99.90
42031;DHT22;27709;52.036;5.906;2023-01-26T11:56:21;6.40;99.90
42031;DHT22;27709;52.036;5.906;2023-01-26T11:58:56;6.50;99.90
42031;DHT22;27709;52.036;5.906;2023-01-26T12:01:25;6.60;99.90
42031;DHT22;27709;52.036;5.906;2023-01-26T12:03:54;6.70;99.90
42031;DHT22;27709;52.036;5.906;2023-01-26T12:06:35;6.80;99.90
42031;DHT22;27709;52.036;5.906;2023-01-26T12:09:19;7.00;99.90
42031;DHT22;27709;52.036;5.906;2023-01-26T12:12:00;7.10;99.90
42031;DHT22;27709;52.036;5.906;2023-01-26T12:14:37;7.10;99.90
42031;DHT22;27709;52.036;5.906;2023-01-26T12:18:26;7.20;99.90
42031;DHT22;27709;52.036;5.906;2023-01-26T12:20:39;7.30;99.90
42031;DHT22;27709;52.036;5.906;2023-01-26T12:25:48;7.60;99.90
42031;DHT22;27709;52.036;5.906;2023-01-26T12:28:23;7.70;99.90
42031;DHT22;27709;52.036;5.906;2023-01-26T12:33:32;7.80;99.90
42031;DHT22;27709;52.036;5.906;2023-01-26T12:41:30;7.80;99.90
42031;DHT22;27709;52.036;5.906;2023-01-26T12:44:06;7.80;99.90
42031;DHT22;27709;52.036;5.906;2023-01-26T12:46:39;7.90;99.90
42031;DHT22;27709;52.036;5.906;2023-01-26T12:49:29;8.00;99.90
42031;DHT22;27709;52.036;5.906;2023-01-26T12:52:05;8.10;99.90
42031;DHT22;27709;52.036;5.906;2023-01-26T12:54:53;8.10;99.90
42031;DHT22;27709;52.036;5.906;2023-01-26T12:57:23;8.10;99.90
42031;DHT22;27709;52.036;5.906;2023-01-26T12:59:50;8.00;99.90
42031;DHT22;27709;52.036;5.906;2023-01-26T13:02:27;8.00;99.90
42031;DHT22;27709;52.036;5.906;2023-01-26T13:04:55;8.00;99.90
42031;DHT22;27709;52.036;5.906;2023-01-26T13:07:37;7.90;99.90
42031;DHT22;27709;52.036;5.906;2023-01-26T13:12:52;8.00;99.90
42031;DHT22;27709;52.036;5.906;2023-01-26T13:15:23;8.10;99.90
42031;DHT22;27709;52.036;5.906;2023-01-26T13:17:52;8.20;99.90
42031;DHT22;27709;52.036;5.906;2023-01-26T13:20:41;8.10;99.90
42031;DHT22;27709;52.036;5.906;2023-01-26T13:23:39;8.20;99.90
42031;DHT22;27709;52.036;5.906;2023-01-26T13:26:16;8.10;99.90
42031;DHT22;27709;52.036;5.906;2023-01-26T13:28:43;8.10;99.90
42031;DHT22;27709;52.036;5.906;2023-01-26T13:31:11;8.10;99.90
42031;DHT22;27709;52.036;5.906;2023-01-26T13:33:38;8.10;99.90
42031;DHT22;27709;52.036;5.906;2023-01-26T13:36:13;8.10;99.90
42031;DHT22;27709;52.036;5.906;2023-01-26T13:38:43;8.10;99.90
42031;DHT22;27709;52.036;5.906;2023-01-26T13:41:18;8.10;99.90
42031;DHT22;27709;52.036;5.906;2023-01-26T13:44:05;8.10;99.90
42031;DHT22;27709;52.036;5.906;2023-01-26T13:46:37;8.10;99.90
42031;DHT22;27709;52.036;5.906;2023-01-26T13:49:04;8.10;99.90
42031;DHT22;27709;52.036;5.906;2023-01-26T13:51:32;8.10;99.90
42031;DHT22;27709;52.036;5.906;2023-01-26T13:54:12;8.10;99.90
42031;DHT22;27709;52.036;5.906;2023-01-26T13:56:40;8.00;99.90
42031;DHT22;27709;52.036;5.906;2023-01-26T13:59:17;8.00;99.90
42031;DHT22;27709;52.036;5.906;2023-01-26T14:01:46;8.00;99.90
42031;DHT22;27709;52.036;5.906;2023-01-26T14:04:18;8.00;99.90
42031;DHT22;27709;52.036;5.906;2023-01-26T14:06:48;7.90;99.90
42031;DHT22;27709;52.036;5.906;2023-01-26T14:09:14;8.00;99.90
42031;DHT22;27709;52.036;5.906;2023-01-26T14:11:40;8.00;99.90
42031;DHT22;27709;52.036;5.906;2023-01-26T14:14:18;8.00;99.90
42031;DHT22;27709;52.036;5.906;2023-01-26T14:16:45;8.10;99.90
42031;DHT22;27709;52.036;5.906;2023-01-26T14:19:16;8.10;99.90
42031;DHT22;27709;52.036;5.906;2023-01-26T14:21:59;8.10;99.90
42031;DHT22;27709;52.036;5.906;2023-01-26T14:24:33;8.10;99.90
42031;DHT22;27709;52.036;5.906;2023-01-26T14:26:59;8.10;99.90
42031;DHT22;27709;52.036;5.906;2023-01-26T14:29:28;8.10;99.90
42031;DHT22;27709;52.036;5.906;2023-01-26T14:31:56;8.10;99.90
42031;DHT22;27709;52.036;5.906;2023-01-26T14:34:27;8.00;99.90
42031;DHT22;27709;52.036;5.906;2023-01-26T14:37:06;8.00;99.90
42031;DHT22;27709;52.036;5.906;2023-01-26T14:39:32;7.90;99.90
42031;DHT22;27709;52.036;5.906;2023-01-26T14:41:59;7.80;99.90
42031;DHT22;27709;52.036;5.906;2023-01-26T14:44:24;7.80;99.90
42031;DHT22;27709;52.036;5.906;2023-01-26T14:47:00;7.80;99.90
42031;DHT22;27709;52.036;5.906;2023-01-26T14:49:37;7.70;99.90
42031;DHT22;27709;52.036;5.906;2023-01-26T14:52:21;7.70;99.90
42031;DHT22;27709;52.036;5.906;2023-01-26T14:54:52;7.60;99.90
42031;DHT22;27709;52.036;5.906;2023-01-26T14:57:21;7.60;99.90
42031;DHT22;27709;52.036;5.906;2023-01-26T14:59:50;7.50;99.90
42031;DHT22;27709;52.036;5.906;2023-01-26T15:04:51;7.50;99.90
42031;DHT22;27709;52.036;5.906;2023-01-26T15:09:59;7.50;99.90
42031;DHT22;27709;52.036;5.906;2023-01-26T15:12:25;7.50;99.90
42031;DHT22;27709;52.036;5.906;2023-01-26T15:14:56;7.40;99.90
42031;DHT22;27709;52.036;5.906;2023-01-26T15:17:36;7.40;99.90
42031;DHT22;27709;52.036;5.906;2023-01-26T15:22:51;7.40;99.90
42031;DHT22;27709;52.036;5.906;2023-01-26T15:25:22;7.40;99.90
42031;DHT22;27709;52.036;5.906;2023-01-26T15:27:54;7.40;99.90
42031;DHT22;27709;52.036;5.906;2023-01-26T15:32:49;7.40;99.90
42031;DHT22;27709;52.036;5.906;2023-01-26T15:35:32;7.30;99.90
42031;DHT22;27709;52.036;5.906;2023-01-26T15:38:03;7.30;99.90
42031;DHT22;27709;52.036;5.906;2023-01-26T15:40:29;7.30;99.90
42031;DHT22;27709;52.036;5.906;2023-01-26T15:43:13;7.30;99.90
42031;DHT22;27709;52.036;5.906;2023-01-26T15:45:40;7.30;99.90
42031;DHT22;27709;52.036;5.906;2023-01-26T15:48:08;7.20;99.90
42031;DHT22;27709;52.036;5.906;2023-01-26T15:50:34;7.20;99.90
42031;DHT22;27709;52.036;5.906;2023-01-26T15:52:59;7.20;99.90
42031;DHT22;27709;52.036;5.906;2023-01-26T15:55:27;7.20;99.90
42031;DHT22;27709;52.036;5.906;2023-01-26T15:57:54;7.20;99.90
42031;DHT22;27709;52.036;5.906;2023-01-26T16:00:20;7.10;99.90
42031;DHT22;27709;52.036;5.906;2023-01-26T16:02:46;7.10;99.90
42031;DHT22;27709;52.036;5.906;2023-01-26T16:05:17;7.10;99.90
42031;DHT22;27709;52.036;5.906;2023-01-26T16:07:43;7.10;99.90
42031;DHT22;27709;52.036;5.906;2023-01-26T16:10:09;7.00;99.90
42031;DHT22;27709;52.036;5.906;2023-01-26T16:12:35;7.00;99.90
42031;DHT22;27709;52.036;5.906;2023-01-26T16:15:01;7.00;99.90
42031;DHT22;27709;52.036;5.906;2023-01-26T16:17:34;7.00;99.90
42031;DHT22;27709;52.036;5.906;2023-01-26T16:19:59;7.00;99.90
42031;DHT22;27709;52.036;5.906;2023-01-26T16:22:25;6.90;99.90
42031;DHT22;27709;52.036;5.906;2023-01-26T16:24:50;6.90;99.90
42031;DHT22;27709;52.036;5.906;2023-01-26T16:27:17;6.90;99.90
42031;DHT22;27709;52.036;5.906;2023-01-26T16:29:43;6.90;99.90
42031;DHT22;27709;52.036;5.906;2023-01-26T16:32:27;6.90;99.90
42031;DHT22;27709;52.036;5.906;2023-01-26T16:34:53;6.90;99.90
42031;DHT22;27709;52.036;5.906;2023-01-26T16:37:19;6.90;99.90
42031;DHT22;27709;52.036;5.906;2023-01-26T16:39:46;6.90;99.90
42031;DHT22;27709;52.036;5.906;2023-01-26T16:42:16;6.90;99.90
42031;DHT22;27709;52.036;5.906;2023-01-26T16:44:43;6.90;99.90
42031;DHT22;27709;52.036;5.906;2023-01-26T16:47:09;6.80;99.90
42031;DHT22;27709;52.036;5.906;2023-01-26T16:49:35;6.80;99.90
42031;DHT22;27709;52.036;5.906;2023-01-26T16:52:00;6.80;99.90
42031;DHT22;27709;52.036;5.906;2023-01-26T16:54:26;6.80;99.90
42031;DHT22;27709;52.036;5.906;2023-01-26T16:56:51;6.80;99.90
42031;DHT22;27709;52.036;5.906;2023-01-26T16:59:17;6.70;99.90
42031;DHT22;27709;52.036;5.906;2023-01-26T17:01:43;6.70;99.90
42031;DHT22;27709;52.036;5.906;2023-01-26T17:04:09;6.70;99.90
42031;DHT22;27709;52.036;5.906;2023-01-26T17:06:35;6.70;99.90
42031;DHT22;27709;52.036;5.906;2023-01-26T17:09:01;6.70;99.90
42031;DHT22;27709;52.036;5.906;2023-01-26T17:11:27;6.70;99.90
42031;DHT22;27709;52.036;5.906;2023-01-26T17:13:54;6.70;99.90
42031;DHT22;27709;52.036;5.906;2023-01-26T17:16:22;6.60;99.90
42031;DHT22;27709;52.036;5.906;2023-01-26T17:18:53;6.70;99.90
42031;DHT22;27709;52.036;5.906;2023-01-26T17:21:20;6.70;99.90
42031;DHT22;27709;52.036;5.906;2023-01-26T17:23:51;6.70;99.90
42031;DHT22;27709;52.036;5.906;2023-01-26T17:26:17;6.60;99.90
42031;DHT22;27709;52.036;5.906;2023-01-26T17:28:45;6.60;99.90